sensor_id;sensor_type;location;lat;lon;timestamp;P1;durP1;ratioP1;P2;durP2;ratioP2
20609;SDS011;10463;52.378;9.688;2023-04-06T00:00:57;2.90;;;2.53;;
20609;SDS011;10463;52.378;9.688;2023-04-06T00:03:42;2.47;;;2.27;;
20609;SDS011;10463;52.378;9.688;2023-04-06T00:06:27;2.27;;;2.00;;
20609;SDS011;10463;52.378;9.688;2023-04-06T00:09:12;2.80;;;2.30;;
20609;SDS011;10463;52.378;9.688;2023-04-06T00:11:57;2.57;;;2.17;;
20609;SDS011;10463;52.378;9.688;2023-04-06T00:14:43;2.17;;;1.97;;
20609;SDS011;10463;52.378;9.688;2023-04-06T00:17:29;3.60;;;2.73;;
20609;SDS011;10463;52.378;9.688;2023-04-06T00:20:14;2.70;;;2.07;;
20609;SDS011;10463;52.378;9.688;2023-04-06T00:22:59;2.60;;;2.30;;
20609;SDS011;10463;52.378;9.688;2023-04-06T00:25:44;2.63;;;2.10;;
20609;SDS011;10463;52.378;9.688;2023-04-06T00:28:29;2.60;;;2.40;;
20609;SDS011;10463;52.378;9.688;2023-04-06T00:31:15;2.30;;;2.10;;
20609;SDS011;10463;52.378;9.688;2023-04-06T00:34:00;2.70;;;2.50;;
20609;SDS011;10463;52.378;9.688;2023-04-06T00:36:45;2.67;;;2.40;;
20609;SDS011;10463;52.378;9.688;2023-04-06T00:39:29;2.97;;;2.50;;
20609;SDS011;10463;52.378;9.688;2023-04-06T00:42:14;2.20;;;2.00;;
20609;SDS011;10463;52.378;9.688;2023-04-06T00:45:00;2.47;;;2.17;;
20609;SDS011;10463;52.378;9.688;2023-04-06T00:47:46;2.30;;;1.70;;
20609;SDS011;10463;52.378;9.688;2023-04-06T00:50:31;2.90;;;2.00;;
20609;SDS011;10463;52.378;9.688;2023-04-06T00:53:16;2.60;;;2.10;;
20609;SDS011;10463;52.378;9.688;2023-04-06T00:56:02;2.77;;;2.13;;
20609;SDS011;10463;52.378;9.688;2023-04-06T00:58:55;2.73;;;2.10;;
20609;SDS011;10463;52.378;9.688;2023-04-06T01:01:41;2.20;;;1.83;;
20609;SDS011;10463;52.378;9.688;2023-04-06T01:04:42;2.73;;;2.13;;
20609;SDS011;10463;52.378;9.688;2023-04-06T01:07:32;2.23;;;2.03;;
20609;SDS011;10463;52.378;9.688;2023-04-06T01:10:28;2.80;;;2.27;;
20609;SDS011;10463;52.378;9.688;2023-04-06T01:13:39;2.53;;;2.10;;
20609;SDS011;10463;52.378;9.688;2023-04-06T01:16:32;2.00;;;1.70;;
20609;SDS011;10463;52.378;9.688;2023-04-06T01:19:24;2.50;;;1.80;;
20609;SDS011;10463;52.378;9.688;2023-04-06T01:22:14;2.27;;;1.87;;
20609;SDS011;10463;52.378;9.688;2023-04-06T01:25:09;3.20;;;2.10;;
20609;SDS011;10463;52.378;9.688;2023-04-06T01:28:10;2.67;;;2.00;;
20609;SDS011;10463;52.378;9.688;2023-04-06T01:31:11;2.60;;;1.77;;
20609;SDS011;10463;52.378;9.688;2023-04-06T01:34:06;2.20;;;1.90;;
20609;SDS011;10463;52.378;9.688;2023-04-06T01:36:54;2.17;;;1.80;;
20609;SDS011;10463;52.378;9.688;2023-04-06T01:39:45;2.03;;;1.80;;
20609;SDS011;10463;52.378;9.688;2023-04-06T01:42:37;2.03;;;1.63;;
20609;SDS011;10463;52.378;9.688;2023-04-06T01:45:22;2.07;;;1.70;;
20609;SDS011;10463;52.378;9.688;2023-04-06T01:48:10;2.30;;;1.70;;
20609;SDS011;10463;52.378;9.688;2023-04-06T01:50:55;2.43;;;1.87;;
20609;SDS011;10463;52.378;9.688;2023-04-06T01:53:46;2.57;;;1.90;;
20609;SDS011;10463;52.378;9.688;2023-04-06T01:56:33;2.10;;;1.80;;
20609;SDS011;10463;52.378;9.688;2023-04-06T01:59:35;2.03;;;1.57;;
20609;SDS011;10463;52.378;9.688;2023-04-06T02:02:25;2.60;;;2.00;;
20609;SDS011;10463;52.378;9.688;2023-04-06T02:05:19;2.20;;;1.70;;
20609;SDS011;10463;52.378;9.688;2023-04-06T02:08:05;2.27;;;1.83;;
20609;SDS011;10463;52.378;9.688;2023-04-06T02:10:52;2.20;;;1.53;;
20609;SDS011;10463;52.378;9.688;2023-04-06T02:13:48;2.37;;;1.50;;
20609;SDS011;10463;52.378;9.688;2023-04-06T02:16:34;2.27;;;1.50;;
20609;SDS011;10463;52.378;9.688;2023-04-06T02:19:19;1.90;;;1.63;;
20609;SDS011;10463;52.378;9.688;2023-04-06T02:22:04;1.60;;;1.20;;
20609;SDS011;10463;52.378;9.688;2023-04-06T02:24:50;2.07;;;1.77;;
20609;SDS011;10463;52.378;9.688;2023-04-06T02:27:35;2.13;;;1.70;;
20609;SDS011;10463;52.378;9.688;2023-04-06T02:30:21;2.10;;;1.67;;
20609;SDS011;10463;52.378;9.688;2023-04-06T02:33:07;2.03;;;1.67;;
20609;SDS011;10463;52.378;9.688;2023-04-06T02:35:59;2.00;;;1.50;;
20609;SDS011;10463;52.378;9.688;2023-04-06T02:38:44;2.33;;;1.67;;
20609;SDS011;10463;52.378;9.688;2023-04-06T02:41:30;2.10;;;1.40;;
20609;SDS011;10463;52.378;9.688;2023-04-06T02:44:16;2.20;;;1.70;;
20609;SDS011;10463;52.378;9.688;2023-04-06T02:47:03;1.90;;;1.43;;
20609;SDS011;10463;52.378;9.688;2023-04-06T02:49:49;2.03;;;1.30;;
20609;SDS011;10463;52.378;9.688;2023-04-06T02:52:35;2.10;;;1.37;;
20609;SDS011;10463;52.378;9.688;2023-04-06T02:55:20;2.10;;;1.40;;
20609;SDS011;10463;52.378;9.688;2023-04-06T03:00:54;2.20;;;1.70;;
20609;SDS011;10463;52.378;9.688;2023-04-06T03:03:41;1.90;;;1.60;;
20609;SDS011;10463;52.378;9.688;2023-04-06T03:06:32;2.13;;;1.60;;
20609;SDS011;10463;52.378;9.688;2023-04-06T03:09:25;2.10;;;1.70;;
20609;SDS011;10463;52.378;9.688;2023-04-06T03:12:11;1.97;;;1.40;;
20609;SDS011;10463;52.378;9.688;2023-04-06T03:15:25;1.70;;;1.27;;
20609;SDS011;10463;52.378;9.688;2023-04-06T03:18:21;2.00;;;1.70;;
20609;SDS011;10463;52.378;9.688;2023-04-06T03:21:09;2.00;;;1.47;;
20609;SDS011;10463;52.378;9.688;2023-04-06T03:24:04;1.70;;;1.17;;
20609;SDS011;10463;52.378;9.688;2023-04-06T03:26:49;2.07;;;1.50;;
20609;SDS011;10463;52.378;9.688;2023-04-06T03:29:33;1.90;;;1.30;;
20609;SDS011;10463;52.378;9.688;2023-04-06T03:32:19;2.80;;;1.50;;
20609;SDS011;10463;52.378;9.688;2023-04-06T03:35:05;1.70;;;1.17;;
20609;SDS011;10463;52.378;9.688;2023-04-06T03:37:52;1.80;;;1.27;;
20609;SDS011;10463;52.378;9.688;2023-04-06T03:40:37;1.83;;;1.37;;
20609;SDS011;10463;52.378;9.688;2023-04-06T03:43:22;1.83;;;1.40;;
20609;SDS011;10463;52.378;9.688;2023-04-06T03:46:07;1.87;;;1.37;;
20609;SDS011;10463;52.378;9.688;2023-04-06T03:48:52;1.97;;;1.43;;
20609;SDS011;10463;52.378;9.688;2023-04-06T03:51:39;1.80;;;1.33;;
20609;SDS011;10463;52.378;9.688;2023-04-06T03:54:27;1.83;;;1.40;;
20609;SDS011;10463;52.378;9.688;2023-04-06T03:57:12;1.60;;;1.20;;
20609;SDS011;10463;52.378;9.688;2023-04-06T03:59:57;1.90;;;1.30;;
20609;SDS011;10463;52.378;9.688;2023-04-06T04:02:43;1.63;;;1.30;;
20609;SDS011;10463;52.378;9.688;2023-04-06T04:05:28;1.57;;;1.20;;
20609;SDS011;10463;52.378;9.688;2023-04-06T04:08:14;1.70;;;1.33;;
20609;SDS011;10463;52.378;9.688;2023-04-06T04:11:00;1.87;;;1.20;;
20609;SDS011;10463;52.378;9.688;2023-04-06T04:13:45;2.00;;;1.40;;
20609;SDS011;10463;52.378;9.688;2023-04-06T04:16:31;1.40;;;1.00;;
20609;SDS011;10463;52.378;9.688;2023-04-06T04:19:16;1.83;;;1.33;;
20609;SDS011;10463;52.378;9.688;2023-04-06T04:22:00;1.90;;;1.30;;
20609;SDS011;10463;52.378;9.688;2023-04-06T04:24:51;1.60;;;1.20;;
20609;SDS011;10463;52.378;9.688;2023-04-06T04:27:38;1.70;;;1.00;;
20609;SDS011;10463;52.378;9.688;2023-04-06T04:30:23;1.60;;;1.07;;
20609;SDS011;10463;52.378;9.688;2023-04-06T04:33:08;1.80;;;1.20;;
20609;SDS011;10463;52.378;9.688;2023-04-06T04:35:52;1.53;;;1.20;;
20609;SDS011;10463;52.378;9.688;2023-04-06T04:38:40;1.60;;;1.10;;
20609;SDS011;10463;52.378;9.688;2023-04-06T04:41:25;2.17;;;1.37;;
20609;SDS011;10463;52.378;9.688;2023-04-06T04:44:12;2.10;;;1.40;;
20609;SDS011;10463;52.378;9.688;2023-04-06T04:46:59;2.07;;;1.50;;
20609;SDS011;10463;52.378;9.688;2023-04-06T04:49:54;1.70;;;1.20;;
20609;SDS011;10463;52.378;9.688;2023-04-06T04:52:41;1.70;;;1.33;;
20609;SDS011;10463;52.378;9.688;2023-04-06T04:55:39;1.47;;;1.00;;
20609;SDS011;10463;52.378;9.688;2023-04-06T04:58:25;2.30;;;1.37;;
20609;SDS011;10463;52.378;9.688;2023-04-06T05:01:16;1.60;;;1.13;;
20609;SDS011;10463;52.378;9.688;2023-04-06T05:04:03;1.90;;;1.53;;
20609;SDS011;10463;52.378;9.688;2023-04-06T05:06:48;2.10;;;1.73;;
20609;SDS011;10463;52.378;9.688;2023-04-06T05:09:34;2.37;;;1.60;;
20609;SDS011;10463;52.378;9.688;2023-04-06T05:12:19;2.07;;;1.40;;
20609;SDS011;10463;52.378;9.688;2023-04-06T05:15:18;1.90;;;1.50;;
20609;SDS011;10463;52.378;9.688;2023-04-06T05:18:06;2.00;;;1.50;;
20609;SDS011;10463;52.378;9.688;2023-04-06T05:20:52;1.87;;;1.27;;
20609;SDS011;10463;52.378;9.688;2023-04-06T05:23:43;2.67;;;1.77;;
20609;SDS011;10463;52.378;9.688;2023-04-06T05:26:28;2.20;;;1.60;;
20609;SDS011;10463;52.378;9.688;2023-04-06T05:29:18;2.40;;;1.70;;
20609;SDS011;10463;52.378;9.688;2023-04-06T05:32:04;2.70;;;1.67;;
20609;SDS011;10463;52.378;9.688;2023-04-06T05:34:52;2.10;;;1.50;;
20609;SDS011;10463;52.378;9.688;2023-04-06T05:37:37;2.37;;;1.70;;
20609;SDS011;10463;52.378;9.688;2023-04-06T05:40:22;1.80;;;1.40;;
20609;SDS011;10463;52.378;9.688;2023-04-06T05:43:08;2.10;;;1.40;;
20609;SDS011;10463;52.378;9.688;2023-04-06T05:45:53;2.07;;;1.57;;
20609;SDS011;10463;52.378;9.688;2023-04-06T05:48:38;2.00;;;1.50;;
20609;SDS011;10463;52.378;9.688;2023-04-06T05:51:24;2.30;;;1.47;;
20609;SDS011;10463;52.378;9.688;2023-04-06T05:54:10;2.03;;;1.67;;
20609;SDS011;10463;52.378;9.688;2023-04-06T05:56:56;2.40;;;1.60;;
20609;SDS011;10463;52.378;9.688;2023-04-06T05:59:41;2.47;;;1.70;;
20609;SDS011;10463;52.378;9.688;2023-04-06T06:02:30;2.13;;;1.63;;
20609;SDS011;10463;52.378;9.688;2023-04-06T06:05:15;2.20;;;1.60;;
20609;SDS011;10463;52.378;9.688;2023-04-06T06:08:01;2.30;;;1.60;;
20609;SDS011;10463;52.378;9.688;2023-04-06T06:10:47;2.57;;;1.67;;
20609;SDS011;10463;52.378;9.688;2023-04-06T06:13:34;2.40;;;1.73;;
20609;SDS011;10463;52.378;9.688;2023-04-06T06:16:20;2.60;;;1.53;;
20609;SDS011;10463;52.378;9.688;2023-04-06T06:19:06;2.00;;;1.50;;
20609;SDS011;10463;52.378;9.688;2023-04-06T06:21:51;1.90;;;1.60;;
20609;SDS011;10463;52.378;9.688;2023-04-06T06:24:38;3.30;;;1.70;;
20609;SDS011;10463;52.378;9.688;2023-04-06T06:27:23;2.73;;;2.23;;
20609;SDS011;10463;52.378;9.688;2023-04-06T06:30:08;1.67;;;1.30;;
20609;SDS011;10463;52.378;9.688;2023-04-06T06:32:57;2.00;;;1.40;;
20609;SDS011;10463;52.378;9.688;2023-04-06T06:35:43;2.30;;;1.70;;
20609;SDS011;10463;52.378;9.688;2023-04-06T06:38:29;1.73;;;1.30;;
20609;SDS011;10463;52.378;9.688;2023-04-06T06:41:15;3.10;;;2.30;;
20609;SDS011;10463;52.378;9.688;2023-04-06T06:44:00;2.10;;;1.70;;
20609;SDS011;10463;52.378;9.688;2023-04-06T06:46:46;2.57;;;2.00;;
20609;SDS011;10463;52.378;9.688;2023-04-06T06:49:30;2.13;;;1.40;;
20609;SDS011;10463;52.378;9.688;2023-04-06T06:52:16;2.13;;;1.70;;
20609;SDS011;10463;52.378;9.688;2023-04-06T06:55:02;2.50;;;1.67;;
20609;SDS011;10463;52.378;9.688;2023-04-06T06:57:48;2.93;;;2.00;;
20609;SDS011;10463;52.378;9.688;2023-04-06T07:00:33;2.33;;;1.80;;
20609;SDS011;10463;52.378;9.688;2023-04-06T07:03:19;2.63;;;1.83;;
20609;SDS011;10463;52.378;9.688;2023-04-06T07:06:04;1.97;;;1.50;;
20609;SDS011;10463;52.378;9.688;2023-04-06T07:08:49;3.30;;;2.30;;
20609;SDS011;10463;52.378;9.688;2023-04-06T07:11:34;2.50;;;1.90;;
20609;SDS011;10463;52.378;9.688;2023-04-06T07:14:21;2.40;;;2.00;;
20609;SDS011;10463;52.378;9.688;2023-04-06T07:17:06;2.57;;;2.00;;
20609;SDS011;10463;52.378;9.688;2023-04-06T07:19:51;2.33;;;1.90;;
20609;SDS011;10463;52.378;9.688;2023-04-06T07:22:36;2.90;;;2.10;;
20609;SDS011;10463;52.378;9.688;2023-04-06T07:25:21;2.40;;;2.00;;
20609;SDS011;10463;52.378;9.688;2023-04-06T07:28:06;3.13;;;2.30;;
20609;SDS011;10463;52.378;9.688;2023-04-06T07:30:53;2.77;;;2.10;;
20609;SDS011;10463;52.378;9.688;2023-04-06T07:33:39;2.53;;;1.97;;
20609;SDS011;10463;52.378;9.688;2023-04-06T07:36:24;3.43;;;2.57;;
20609;SDS011;10463;52.378;9.688;2023-04-06T07:39:09;2.83;;;2.20;;
20609;SDS011;10463;52.378;9.688;2023-04-06T07:41:55;3.60;;;2.70;;
20609;SDS011;10463;52.378;9.688;2023-04-06T07:44:40;3.47;;;2.70;;
20609;SDS011;10463;52.378;9.688;2023-04-06T07:47:27;3.70;;;2.80;;
20609;SDS011;10463;52.378;9.688;2023-04-06T07:50:13;3.33;;;2.60;;
20609;SDS011;10463;52.378;9.688;2023-04-06T07:52:57;3.10;;;2.10;;
20609;SDS011;10463;52.378;9.688;2023-04-06T07:55:44;4.07;;;3.30;;
20609;SDS011;10463;52.378;9.688;2023-04-06T07:58:29;4.10;;;2.80;;
20609;SDS011;10463;52.378;9.688;2023-04-06T08:01:14;3.77;;;2.80;;
20609;SDS011;10463;52.378;9.688;2023-04-06T08:04:00;4.00;;;3.07;;
20609;SDS011;10463;52.378;9.688;2023-04-06T08:06:46;3.27;;;2.90;;
20609;SDS011;10463;52.378;9.688;2023-04-06T08:09:31;3.60;;;3.00;;
20609;SDS011;10463;52.378;9.688;2023-04-06T08:12:15;4.00;;;2.77;;
20609;SDS011;10463;52.378;9.688;2023-04-06T08:15:00;3.10;;;2.80;;
20609;SDS011;10463;52.378;9.688;2023-04-06T08:17:46;3.63;;;2.83;;
20609;SDS011;10463;52.378;9.688;2023-04-06T08:20:32;4.23;;;3.23;;
20609;SDS011;10463;52.378;9.688;2023-04-06T08:23:17;3.70;;;2.87;;
20609;SDS011;10463;52.378;9.688;2023-04-06T08:26:01;4.03;;;3.53;;
20609;SDS011;10463;52.378;9.688;2023-04-06T08:28:46;4.67;;;3.60;;
20609;SDS011;10463;52.378;9.688;2023-04-06T08:31:31;5.47;;;3.87;;
20609;SDS011;10463;52.378;9.688;2023-04-06T08:34:16;4.67;;;4.13;;
20609;SDS011;10463;52.378;9.688;2023-04-06T08:37:02;4.53;;;3.63;;
20609;SDS011;10463;52.378;9.688;2023-04-06T08:39:46;5.03;;;3.77;;
20609;SDS011;10463;52.378;9.688;2023-04-06T08:42:32;4.70;;;3.70;;
20609;SDS011;10463;52.378;9.688;2023-04-06T08:45:21;5.80;;;5.20;;
20609;SDS011;10463;52.378;9.688;2023-04-06T08:48:07;5.13;;;4.00;;
20609;SDS011;10463;52.378;9.688;2023-04-06T08:50:52;5.90;;;4.60;;
20609;SDS011;10463;52.378;9.688;2023-04-06T08:53:40;4.30;;;3.90;;
20609;SDS011;10463;52.378;9.688;2023-04-06T08:56:26;5.33;;;4.60;;
20609;SDS011;10463;52.378;9.688;2023-04-06T08:59:12;5.90;;;4.40;;
20609;SDS011;10463;52.378;9.688;2023-04-06T09:01:57;5.53;;;4.20;;
20609;SDS011;10463;52.378;9.688;2023-04-06T09:04:43;5.80;;;4.60;;
20609;SDS011;10463;52.378;9.688;2023-04-06T09:07:29;4.83;;;3.97;;
20609;SDS011;10463;52.378;9.688;2023-04-06T09:10:16;6.03;;;5.00;;
20609;SDS011;10463;52.378;9.688;2023-04-06T09:13:04;5.77;;;4.60;;
20609;SDS011;10463;52.378;9.688;2023-04-06T09:15:58;5.57;;;4.80;;
20609;SDS011;10463;52.378;9.688;2023-04-06T09:18:44;4.97;;;4.13;;
20609;SDS011;10463;52.378;9.688;2023-04-06T09:21:29;5.20;;;4.60;;
20609;SDS011;10463;52.378;9.688;2023-04-06T09:24:15;6.17;;;4.60;;
20609;SDS011;10463;52.378;9.688;2023-04-06T09:27:06;5.43;;;4.30;;
20609;SDS011;10463;52.378;9.688;2023-04-06T09:29:51;5.30;;;4.37;;
20609;SDS011;10463;52.378;9.688;2023-04-06T09:32:48;4.77;;;4.27;;
20609;SDS011;10463;52.378;9.688;2023-04-06T09:35:34;5.10;;;3.90;;
20609;SDS011;10463;52.378;9.688;2023-04-06T09:38:19;5.17;;;4.67;;
20609;SDS011;10463;52.378;9.688;2023-04-06T09:41:04;6.50;;;4.80;;
20609;SDS011;10463;52.378;9.688;2023-04-06T09:43:51;4.90;;;4.10;;
20609;SDS011;10463;52.378;9.688;2023-04-06T09:46:37;4.90;;;4.13;;
20609;SDS011;10463;52.378;9.688;2023-04-06T09:49:23;5.50;;;4.90;;
20609;SDS011;10463;52.378;9.688;2023-04-06T09:52:11;5.37;;;4.57;;
20609;SDS011;10463;52.378;9.688;2023-04-06T09:54:59;4.97;;;4.40;;
20609;SDS011;10463;52.378;9.688;2023-04-06T09:57:50;5.97;;;4.47;;
20609;SDS011;10463;52.378;9.688;2023-04-06T10:00:44;5.50;;;5.00;;
20609;SDS011;10463;52.378;9.688;2023-04-06T10:03:38;6.70;;;5.57;;
20609;SDS011;10463;52.378;9.688;2023-04-06T10:06:30;4.80;;;4.30;;
20609;SDS011;10463;52.378;9.688;2023-04-06T10:09:20;6.20;;;4.97;;
20609;SDS011;10463;52.378;9.688;2023-04-06T10:12:09;6.07;;;4.57;;
20609;SDS011;10463;52.378;9.688;2023-04-06T10:14:54;6.33;;;5.10;;
20609;SDS011;10463;52.378;9.688;2023-04-06T10:17:41;4.53;;;4.13;;
20609;SDS011;10463;52.378;9.688;2023-04-06T10:20:29;5.83;;;4.40;;
20609;SDS011;10463;52.378;9.688;2023-04-06T10:23:24;5.70;;;4.37;;
20609;SDS011;10463;52.378;9.688;2023-04-06T10:26:19;4.47;;;3.60;;
20609;SDS011;10463;52.378;9.688;2023-04-06T10:29:05;4.30;;;3.90;;
20609;SDS011;10463;52.378;9.688;2023-04-06T10:31:51;4.77;;;4.13;;
20609;SDS011;10463;52.378;9.688;2023-04-06T10:34:37;4.13;;;3.73;;
20609;SDS011;10463;52.378;9.688;2023-04-06T10:37:22;5.47;;;4.20;;
20609;SDS011;10463;52.378;9.688;2023-04-06T10:40:17;4.90;;;4.40;;
20609;SDS011;10463;52.378;9.688;2023-04-06T10:43:08;4.70;;;4.20;;
20609;SDS011;10463;52.378;9.688;2023-04-06T10:45:55;4.80;;;3.50;;
20609;SDS011;10463;52.378;9.688;2023-04-06T10:48:42;5.03;;;3.63;;
20609;SDS011;10463;52.378;9.688;2023-04-06T10:51:30;4.40;;;3.40;;
20609;SDS011;10463;52.378;9.688;2023-04-06T10:54:16;3.83;;;3.03;;
20609;SDS011;10463;52.378;9.688;2023-04-06T10:57:03;4.57;;;3.80;;
20609;SDS011;10463;52.378;9.688;2023-04-06T10:59:48;3.83;;;3.43;;
20609;SDS011;10463;52.378;9.688;2023-04-06T11:02:33;4.23;;;3.80;;
20609;SDS011;10463;52.378;9.688;2023-04-06T11:05:19;4.00;;;3.50;;
20609;SDS011;10463;52.378;9.688;2023-04-06T11:08:05;4.60;;;3.43;;
20609;SDS011;10463;52.378;9.688;2023-04-06T11:10:51;4.37;;;3.67;;
20609;SDS011;10463;52.378;9.688;2023-04-06T11:13:37;4.23;;;3.43;;
20609;SDS011;10463;52.378;9.688;2023-04-06T11:16:24;4.70;;;3.87;;
20609;SDS011;10463;52.378;9.688;2023-04-06T11:19:10;3.73;;;3.33;;
20609;SDS011;10463;52.378;9.688;2023-04-06T11:21:56;4.90;;;3.30;;
20609;SDS011;10463;52.378;9.688;2023-04-06T11:24:52;5.30;;;4.17;;
20609;SDS011;10463;52.378;9.688;2023-04-06T11:27:48;4.33;;;3.73;;
20609;SDS011;10463;52.378;9.688;2023-04-06T11:30:33;4.03;;;3.20;;
20609;SDS011;10463;52.378;9.688;2023-04-06T11:33:21;3.80;;;3.30;;
20609;SDS011;10463;52.378;9.688;2023-04-06T11:36:07;5.50;;;3.30;;
20609;SDS011;10463;52.378;9.688;2023-04-06T11:38:52;4.53;;;3.97;;
20609;SDS011;10463;52.378;9.688;2023-04-06T11:41:38;4.50;;;3.13;;
20609;SDS011;10463;52.378;9.688;2023-04-06T11:44:29;4.40;;;3.90;;
20609;SDS011;10463;52.378;9.688;2023-04-06T11:47:17;3.80;;;3.40;;
20609;SDS011;10463;52.378;9.688;2023-04-06T11:50:06;4.17;;;3.73;;
20609;SDS011;10463;52.378;9.688;2023-04-06T11:52:58;4.00;;;3.50;;
20609;SDS011;10463;52.378;9.688;2023-04-06T11:55:44;3.97;;;3.30;;
20609;SDS011;10463;52.378;9.688;2023-04-06T11:58:33;4.30;;;3.20;;
20609;SDS011;10463;52.378;9.688;2023-04-06T12:01:18;4.00;;;3.33;;
20609;SDS011;10463;52.378;9.688;2023-04-06T12:04:03;4.30;;;3.13;;
20609;SDS011;10463;52.378;9.688;2023-04-06T12:06:49;4.20;;;3.57;;
20609;SDS011;10463;52.378;9.688;2023-04-06T12:09:34;3.63;;;3.23;;
20609;SDS011;10463;52.378;9.688;2023-04-06T12:12:19;4.50;;;3.80;;
20609;SDS011;10463;52.378;9.688;2023-04-06T12:15:07;4.37;;;3.47;;
20609;SDS011;10463;52.378;9.688;2023-04-06T12:17:52;4.40;;;3.67;;
20609;SDS011;10463;52.378;9.688;2023-04-06T12:20:37;3.60;;;3.20;;
20609;SDS011;10463;52.378;9.688;2023-04-06T12:23:22;4.87;;;4.07;;
20609;SDS011;10463;52.378;9.688;2023-04-06T12:26:07;5.20;;;4.40;;
20609;SDS011;10463;52.378;9.688;2023-04-06T12:28:52;4.80;;;3.90;;
20609;SDS011;10463;52.378;9.688;2023-04-06T12:31:39;5.10;;;3.80;;
20609;SDS011;10463;52.378;9.688;2023-04-06T12:34:25;4.20;;;3.80;;
20609;SDS011;10463;52.378;9.688;2023-04-06T12:37:10;5.50;;;4.70;;
20609;SDS011;10463;52.378;9.688;2023-04-06T12:39:54;3.60;;;3.30;;
20609;SDS011;10463;52.378;9.688;2023-04-06T12:42:39;4.67;;;3.77;;
20609;SDS011;10463;52.378;9.688;2023-04-06T12:45:27;5.57;;;4.97;;
20609;SDS011;10463;52.378;9.688;2023-04-06T12:48:13;6.40;;;5.07;;
20609;SDS011;10463;52.378;9.688;2023-04-06T12:50:58;5.43;;;4.60;;
20609;SDS011;10463;52.378;9.688;2023-04-06T12:53:45;5.97;;;4.37;;
20609;SDS011;10463;52.378;9.688;2023-04-06T12:56:29;5.53;;;4.60;;
20609;SDS011;10463;52.378;9.688;2023-04-06T12:59:15;4.53;;;4.10;;
20609;SDS011;10463;52.378;9.688;2023-04-06T13:02:00;4.90;;;4.07;;
20609;SDS011;10463;52.378;9.688;2023-04-06T13:04:47;5.17;;;4.10;;
20609;SDS011;10463;52.378;9.688;2023-04-06T13:07:33;4.70;;;3.97;;
20609;SDS011;10463;52.378;9.688;2023-04-06T13:10:18;4.67;;;4.17;;
20609;SDS011;10463;52.378;9.688;2023-04-06T13:13:03;4.20;;;3.63;;
20609;SDS011;10463;52.378;9.688;2023-04-06T13:15:48;4.13;;;3.73;;
20609;SDS011;10463;52.378;9.688;2023-04-06T13:18:33;5.63;;;4.53;;
20609;SDS011;10463;52.378;9.688;2023-04-06T13:21:20;4.33;;;3.73;;
20609;SDS011;10463;52.378;9.688;2023-04-06T13:24:05;5.70;;;4.70;;
20609;SDS011;10463;52.378;9.688;2023-04-06T13:26:50;5.03;;;4.07;;
20609;SDS011;10463;52.378;9.688;2023-04-06T13:29:35;4.43;;;3.50;;
20609;SDS011;10463;52.378;9.688;2023-04-06T13:32:22;4.80;;;3.80;;
20609;SDS011;10463;52.378;9.688;2023-04-06T13:35:08;4.13;;;3.73;;
20609;SDS011;10463;52.378;9.688;2023-04-06T13:37:55;4.47;;;3.70;;
20609;SDS011;10463;52.378;9.688;2023-04-06T13:40:39;3.60;;;3.30;;
20609;SDS011;10463;52.378;9.688;2023-04-06T13:43:25;4.07;;;3.47;;
20609;SDS011;10463;52.378;9.688;2023-04-06T13:46:11;3.40;;;2.90;;
20609;SDS011;10463;52.378;9.688;2023-04-06T13:48:55;3.70;;;3.20;;
20609;SDS011;10463;52.378;9.688;2023-04-06T13:51:40;4.23;;;2.97;;
20609;SDS011;10463;52.378;9.688;2023-04-06T13:54:27;3.63;;;3.20;;
20609;SDS011;10463;52.378;9.688;2023-04-06T13:57:12;3.40;;;2.80;;
20609;SDS011;10463;52.378;9.688;2023-04-06T13:59:56;3.97;;;3.20;;
20609;SDS011;10463;52.378;9.688;2023-04-06T14:02:41;3.97;;;3.10;;
20609;SDS011;10463;52.378;9.688;2023-04-06T14:05:26;4.17;;;3.40;;
20609;SDS011;10463;52.378;9.688;2023-04-06T14:08:15;4.37;;;3.03;;
20609;SDS011;10463;52.378;9.688;2023-04-06T14:11:01;3.37;;;2.90;;
20609;SDS011;10463;52.378;9.688;2023-04-06T14:13:46;4.43;;;2.80;;
20609;SDS011;10463;52.378;9.688;2023-04-06T14:16:31;3.93;;;3.00;;
20609;SDS011;10463;52.378;9.688;2023-04-06T14:19:16;3.27;;;2.73;;
20609;SDS011;10463;52.378;9.688;2023-04-06T14:22:01;3.37;;;2.70;;
20609;SDS011;10463;52.378;9.688;2023-04-06T14:24:46;4.10;;;3.13;;
20609;SDS011;10463;52.378;9.688;2023-04-06T14:27:32;3.10;;;2.40;;
20609;SDS011;10463;52.378;9.688;2023-04-06T14:30:17;3.70;;;2.80;;
20609;SDS011;10463;52.378;9.688;2023-04-06T14:33:02;3.50;;;3.20;;
20609;SDS011;10463;52.378;9.688;2023-04-06T14:35:47;2.80;;;2.50;;
20609;SDS011;10463;52.378;9.688;2023-04-06T14:38:32;3.73;;;3.13;;
20609;SDS011;10463;52.378;9.688;2023-04-06T14:41:17;4.27;;;2.90;;
20609;SDS011;10463;52.378;9.688;2023-04-06T14:44:05;3.43;;;2.97;;
20609;SDS011;10463;52.378;9.688;2023-04-06T14:46:49;3.53;;;3.17;;
20609;SDS011;10463;52.378;9.688;2023-04-06T14:49:35;3.20;;;2.67;;
20609;SDS011;10463;52.378;9.688;2023-04-06T14:52:20;3.27;;;2.90;;
20609;SDS011;10463;52.378;9.688;2023-04-06T14:55:05;3.13;;;2.60;;
20609;SDS011;10463;52.378;9.688;2023-04-06T14:57:50;3.30;;;2.87;;
20609;SDS011;10463;52.378;9.688;2023-04-06T15:00:36;3.07;;;2.67;;
20609;SDS011;10463;52.378;9.688;2023-04-06T15:03:22;3.63;;;3.00;;
20609;SDS011;10463;52.378;9.688;2023-04-06T15:06:12;6.30;;;2.97;;
20609;SDS011;10463;52.378;9.688;2023-04-06T15:08:59;3.60;;;2.73;;
20609;SDS011;10463;52.378;9.688;2023-04-06T15:11:44;3.33;;;2.53;;
20609;SDS011;10463;52.378;9.688;2023-04-06T15:14:30;3.30;;;2.90;;
20609;SDS011;10463;52.378;9.688;2023-04-06T15:17:16;3.87;;;2.60;;
20609;SDS011;10463;52.378;9.688;2023-04-06T15:20:01;2.90;;;2.47;;
20609;SDS011;10463;52.378;9.688;2023-04-06T15:22:46;2.70;;;2.30;;
20609;SDS011;10463;52.378;9.688;2023-04-06T15:25:31;3.70;;;2.57;;
20609;SDS011;10463;52.378;9.688;2023-04-06T15:28:16;3.50;;;2.53;;
20609;SDS011;10463;52.378;9.688;2023-04-06T15:31:01;2.97;;;2.67;;
20609;SDS011;10463;52.378;9.688;2023-04-06T15:33:51;3.10;;;2.53;;
20609;SDS011;10463;52.378;9.688;2023-04-06T15:36:36;3.10;;;2.60;;
20609;SDS011;10463;52.378;9.688;2023-04-06T15:39:21;2.70;;;2.20;;
20609;SDS011;10463;52.378;9.688;2023-04-06T15:42:05;3.20;;;2.43;;
20609;SDS011;10463;52.378;9.688;2023-04-06T15:44:50;2.80;;;2.13;;
20609;SDS011;10463;52.378;9.688;2023-04-06T15:47:34;2.90;;;2.60;;
20609;SDS011;10463;52.378;9.688;2023-04-06T15:50:21;2.70;;;2.17;;
20609;SDS011;10463;52.378;9.688;2023-04-06T15:53:05;3.47;;;2.60;;
20609;SDS011;10463;52.378;9.688;2023-04-06T15:55:50;2.77;;;2.10;;
20609;SDS011;10463;52.378;9.688;2023-04-06T15:58:35;2.73;;;2.10;;
20609;SDS011;10463;52.378;9.688;2023-04-06T16:01:20;2.90;;;2.10;;
20609;SDS011;10463;52.378;9.688;2023-04-06T16:04:06;3.07;;;2.50;;
20609;SDS011;10463;52.378;9.688;2023-04-06T16:06:53;3.03;;;2.70;;
20609;SDS011;10463;52.378;9.688;2023-04-06T16:09:38;3.07;;;2.77;;
20609;SDS011;10463;52.378;9.688;2023-04-06T16:12:22;3.50;;;2.40;;
20609;SDS011;10463;52.378;9.688;2023-04-06T16:15:08;2.67;;;2.23;;
20609;SDS011;10463;52.378;9.688;2023-04-06T16:17:53;2.83;;;2.57;;
20609;SDS011;10463;52.378;9.688;2023-04-06T16:20:38;3.00;;;2.70;;
20609;SDS011;10463;52.378;9.688;2023-04-06T16:23:24;2.73;;;2.37;;
20609;SDS011;10463;52.378;9.688;2023-04-06T16:26:10;3.40;;;2.60;;
20609;SDS011;10463;52.378;9.688;2023-04-06T16:28:57;3.20;;;2.90;;
20609;SDS011;10463;52.378;9.688;2023-04-06T16:31:41;3.17;;;2.40;;
20609;SDS011;10463;52.378;9.688;2023-04-06T16:34:31;2.90;;;2.40;;
20609;SDS011;10463;52.378;9.688;2023-04-06T16:37:17;3.50;;;2.70;;
20609;SDS011;10463;52.378;9.688;2023-04-06T16:40:04;3.10;;;2.50;;
20609;SDS011;10463;52.378;9.688;2023-04-06T16:42:50;4.37;;;3.20;;
20609;SDS011;10463;52.378;9.688;2023-04-06T16:45:35;3.00;;;2.40;;
20609;SDS011;10463;52.378;9.688;2023-04-06T16:48:21;3.50;;;2.77;;